Time;durP1;ratioP1;P1;durP2;ratioP2;P2;SDS_P1;SDS_P2;PMS_P1;PMS_P2;Temp;Humidity;BMP_temperature;BMP_pressure;BME280_temperature;BME280_humidity;BME280_pressure;Samples;Min_cycle;Max_cycle;Signal;HPM_P1;HPM_P2
2022/03/28 00:00:25;;;;;;;16.40;5.50;;;11.50;59.50;;;;;;5135521;28;20023;-70
2022/03/28 00:02:51;;;;;;;15.32;5.93;;;11.40;60.00;;;;;;5135462;28;20027;-70
2022/03/28 00:05:17;;;;;;;23.65;6.28;;;11.30;60.00;;;;;;5135365;28;20043;-69
2022/03/28 00:07:44;;;;;;;15.05;5.85;;;11.10;60.10;;;;;;5135408;28;20035;-70
2022/03/28 00:10:11;;;;;;;12.15;5.20;;;11.00;60.30;;;;;;5135299;28;20019;-70
2022/03/28 00:12:38;;;;;;;19.08;5.50;;;10.90;60.20;;;;;;5135196;28;20050;-69
2022/03/28 00:15:05;;;;;;;16.30;5.32;;;10.80;60.70;;;;;;5135198;28;20024;-70
2022/03/28 00:17:32;;;;;;;17.27;5.68;;;10.70;60.90;;;;;;5135065;28;20035;-70
2022/03/28 00:19:59;;;;;;;16.80;5.82;;;10.80;60.80;;;;;;5135122;28;20016;-70
2022/03/28 00:22:25;;;;;;;21.92;6.32;;;10.80;60.90;;;;;;5135031;28;20039;-70
2022/03/28 00:24:50;;;;;;;18.92;6.10;;;10.70;60.80;;;;;;5134912;28;20035;-70
2022/03/28 00:27:17;;;;;;;16.50;6.10;;;10.80;61.10;;;;;;5134896;28;20492;-70
2022/03/28 00:29:44;;;;;;;17.00;6.28;;;10.90;61.20;;;;;;5134804;28;20030;-70
2022/03/28 00:32:10;;;;;;;16.33;6.78;;;11.00;60.90;;;;;;5134844;28;20120;-70
2022/03/28 00:34:36;;;;;;;19.52;6.68;;;11.10;60.60;;;;;;5134785;28;20035;-70
2022/03/28 00:37:02;;;;;;;18.45;6.90;;;11.20;60.40;;;;;;5133697;28;20027;-70
2022/03/28 00:39:27;;;;;;;14.48;6.07;;;11.30;60.50;;;;;;5134651;28;20030;-70
2022/03/28 00:41:53;;;;;;;16.33;6.13;;;11.20;60.70;;;;;;5134676;28;20102;-70
2022/03/28 00:44:20;;;;;;;17.70;6.20;;;11.30;60.60;;;;;;5134450;28;20065;-69
2022/03/28 00:46:46;;;;;;;19.40;6.43;;;11.30;60.30;;;;;;5134536;28;20034;-70
2022/03/28 00:49:12;;;;;;;16.88;6.40;;;11.30;61.00;;;;;;5134664;28;20031;-69
2022/03/28 00:51:39;;;;;;;18.95;6.47;;;11.30;60.50;;;;;;5134452;28;20024;-70
2022/03/28 00:54:06;;;;;;;14.10;6.40;;;11.30;60.70;;;;;;5134453;28;20031;-70
2022/03/28 00:56:33;;;;;;;20.55;6.28;;;11.30;60.80;;;;;;5134377;28;20023;-70
2022/03/28 00:58:58;;;;;;;23.73;6.20;;;11.30;60.60;;;;;;5134294;28;20051;-70
2022/03/28 01:01:27;;;;;;;17.20;6.55;;;11.30;60.60;;;;;;5134316;28;20035;-70
2022/03/28 01:03:53;;;;;;;18.00;6.93;;;11.30;60.70;;;;;;5134299;28;20016;-70
2022/03/28 01:06:18;;;;;;;17.23;6.20;;;11.30;61.00;;;;;;5134247;28;20030;-70
2022/03/28 01:08:44;;;;;;;17.17;6.95;;;11.30;61.40;;;;;;5116200;28;20095;-69
2022/03/28 01:11:10;;;;;;;22.95;6.32;;;11.30;61.20;;;;;;5134134;28;20038;-69
2022/03/28 01:13:38;;;;;;;22.55;7.10;;;11.30;61.10;;;;;;5134108;28;20034;-69
2022/03/28 01:16:04;;;;;;;26.50;6.93;;;11.30;61.10;;;;;;5134110;28;20050;-69
2022/03/28 01:18:31;;;;;;;20.02;6.35;;;11.30;61.20;;;;;;5134075;28;20087;-70
2022/03/28 01:20:58;;;;;;;18.45;7.45;;;11.30;61.30;;;;;;5134022;28;20019;-69
2022/03/28 01:23:24;;;;;;;18.60;6.53;;;11.30;61.50;;;;;;5133834;28;20073;-70
2022/03/28 01:25:51;;;;;;;20.45;7.20;;;11.20;61.60;;;;;;5134110;28;20020;-69
2022/03/28 01:28:21;;;;;;;16.50;6.82;;;11.30;61.80;;;;;;5133897;28;20036;-70
2022/03/28 01:30:47;;;;;;;19.38;6.93;;;11.20;61.90;;;;;;5134161;28;20035;-70
2022/03/28 01:33:13;;;;;;;17.15;7.00;;;11.20;61.80;;;;;;5133893;28;20024;-70
2022/03/28 01:35:41;;;;;;;19.90;6.85;;;11.20;62.00;;;;;;5133825;28;20020;-70
2022/03/28 01:38:09;;;;;;;17.67;6.65;;;11.20;62.10;;;;;;5133759;28;20028;-69
2022/03/28 01:40:37;;;;;;;15.45;6.38;;;11.20;62.00;;;;;;5133796;28;20049;-70
2022/03/28 01:43:03;;;;;;;18.63;6.90;;;11.10;62.20;;;;;;5133673;28;20020;-70
2022/03/28 01:45:28;;;;;;;15.50;6.07;;;11.00;62.30;;;;;;5133756;28;20145;-69
2022/03/28 01:47:54;;;;;;;16.75;6.40;;;10.90;62.50;;;;;;5133723;28;20035;-69
2022/03/28 01:50:21;;;;;;;16.83;6.43;;;10.90;63.00;;;;;;5132777;28;20087;-70
2022/03/28 01:52:47;;;;;;;18.20;6.75;;;10.70;63.20;;;;;;5133697;28;20448;-70
2022/03/28 01:55:14;;;;;;;16.10;6.80;;;10.60;63.80;;;;;;5133849;28;20028;-69
2022/03/28 01:57:40;;;;;;;13.85;6.60;;;10.60;63.90;;;;;;5137798;28;20019;-70
2022/03/28 02:00:09;;;;;;;19.67;7.30;;;10.60;63.60;;;;;;5137832;28;20035;-70
2022/03/28 02:02:35;;;;;;;20.38;7.47;;;10.50;63.70;;;;;;5137759;28;20023;-70
2022/03/28 02:05:01;;;;;;;24.40;7.68;;;10.60;64.00;;;;;;5137761;28;20045;-70
2022/03/28 02:07:26;;;;;;;18.60;6.25;;;10.50;63.90;;;;;;5137679;28;20024;-70
2022/03/28 02:09:52;;;;;;;20.58;7.03;;;10.50;64.00;;;;;;5137690;28;20024;-70
2022/03/28 02:12:17;;;;;;;16.40;6.38;;;10.50;64.20;;;;;;5136547;28;20096;-70
2022/03/28 02:14:43;;;;;;;11.77;6.25;;;10.50;64.10;;;;;;5137646;28;20035;-70
2022/03/28 02:17:09;;;;;;;19.38;7.15;;;10.50;63.80;;;;;;5137435;27;20028;-70
2022/03/28 02:19:35;;;;;;;20.30;6.50;;;10.60;64.60;;;;;;5137434;28;20034;-70
2022/03/28 02:22:00;;;;;;;20.75;7.35;;;10.50;64.00;;;;;;5137362;28;20023;-70
2022/03/28 02:24:26;;;;;;;16.83;6.65;;;10.60;63.80;;;;;;5137217;28;20044;-69
2022/03/28 02:26:54;;;;;;;14.35;6.15;;;10.60;63.60;;;;;;5137328;28;20024;-70
2022/03/28 02:29:20;;;;;;;17.33;6.85;;;10.60;63.40;;;;;;5137193;28;20020;-70
2022/03/28 02:31:46;;;;;;;17.38;6.25;;;10.60;64.30;;;;;;5136224;28;20073;-70
2022/03/28 02:34:12;;;;;;;15.52;6.75;;;10.60;63.20;;;;;;5137132;28;20020;-69
2022/03/28 02:36:39;;;;;;;15.63;6.22;;;10.60;63.20;;;;;;5137167;28;20049;-70
2022/03/28 02:39:05;;;;;;;16.42;6.47;;;10.70;63.10;;;;;;5137032;28;20028;-70
2022/03/28 02:41:30;;;;;;;13.88;5.75;;;10.70;63.10;;;;;;5137060;28;20098;-70
2022/03/28 02:43:56;;;;;;;18.58;6.57;;;10.50;64.20;;;;;;5136951;28;20051;-69
2022/03/28 02:46:22;;;;;;;15.95;7.00;;;10.40;64.10;;;;;;5136938;28;20052;-70
2022/03/28 02:48:47;;;;;;;18.67;6.78;;;10.30;64.70;;;;;;5136854;28;20044;-70
2022/03/28 02:51:13;;;;;;;16.33;6.65;;;10.30;63.90;;;;;;5136847;28;20027;-69
2022/03/28 02:53:39;;;;;;;19.83;7.03;;;10.10;64.50;;;;;;5136800;28;20034;-69
2022/03/28 02:56:05;;;;;;;16.00;6.57;;;10.20;64.40;;;;;;5136769;28;20024;-70
2022/03/28 02:58:31;;;;;;;18.38;6.50;;;10.20;64.20;;;;;;5136663;28;20028;-69
2022/03/28 03:00:57;;;;;;;18.65;6.88;;;10.20;64.10;;;;;;5136691;27;20468;-69
2022/03/28 03:03:23;;;;;;;20.33;7.22;;;10.20;64.10;;;;;;5136667;28;20038;-70
2022/03/28 03:05:49;;;;;;;15.60;5.60;;;10.10;64.40;;;;;;5136610;28;20035;-70
2022/03/28 03:08:16;;;;;;;19.00;6.75;;;10.00;64.00;;;;;;5136531;28;20069;-69
2022/03/28 03:10:42;;;;;;;16.00;6.47;;;10.00;64.10;;;;;;5136502;28;20028;-69
2022/03/28 03:13:08;;;;;;;19.25;6.75;;;9.80;64.20;;;;;;5136391;28;20026;-70
2022/03/28 03:15:34;;;;;;;14.32;7.00;;;9.70;64.70;;;;;;5136335;28;20058;-70
2022/03/28 03:18:00;;;;;;;18.35;7.13;;;9.70;64.90;;;;;;5136250;28;20442;-70
2022/03/28 03:20:25;;;;;;;19.20;7.15;;;9.60;65.30;;;;;;5136267;28;20499;-70
2022/03/28 03:22:51;;;;;;;15.65;6.43;;;9.40;65.60;;;;;;5136252;28;20075;-70
2022/03/28 03:25:17;;;;;;;21.15;7.28;;;9.40;65.60;;;;;;5136055;28;20048;-70
2022/03/28 03:27:43;;;;;;;17.58;6.68;;;9.40;65.70;;;;;;5136094;28;20042;-69
2022/03/28 03:30:10;;;;;;;15.65;6.47;;;9.50;65.40;;;;;;5136107;28;20026;-70
2022/03/28 03:32:36;;;;;;;15.27;6.65;;;9.60;65.10;;;;;;5136056;28;20040;-70
2022/03/28 03:35:02;;;;;;;15.80;7.00;;;9.60;64.70;;;;;;5135967;28;20108;-69
2022/03/28 03:37:29;;;;;;;18.98;6.43;;;9.50;64.90;;;;;;5135895;28;20032;-69
2022/03/28 03:39:54;;;;;;;17.27;6.68;;;9.30;65.30;;;;;;5134838;28;20050;-70
2022/03/28 03:42:20;;;;;;;17.90;6.30;;;9.30;65.50;;;;;;5136014;28;20020;-70
2022/03/28 03:44:46;;;;;;;15.65;6.85;;;9.40;66.40;;;;;;5135792;28;20019;-70
2022/03/28 03:47:11;;;;;;;19.08;7.03;;;9.40;65.30;;;;;;5135788;28;20500;-69
2022/03/28 03:49:37;;;;;;;18.75;6.50;;;9.50;65.10;;;;;;5135715;28;20028;-70
2022/03/28 03:52:03;;;;;;;14.82;6.35;;;9.40;65.80;;;;;;5135630;28;20040;-70
2022/03/28 03:54:30;;;;;;;16.73;6.28;;;9.30;66.00;;;;;;5135627;28;20030;-69
2022/03/28 03:56:55;;;;;;;16.17;6.60;;;9.20;65.80;;;;;;5135479;28;20038;-69
2022/03/28 03:59:21;;;;;;;16.75;5.72;;;9.20;65.70;;;;;;5135517;28;20049;-69
2022/03/28 04:01:46;;;;;;;17.90;6.60;;;9.00;65.60;;;;;;5135430;28;20028;-70
2022/03/28 04:04:12;;;;;;;16.02;6.45;;;9.20;65.50;;;;;;5135512;28;20020;-70
2022/03/28 04:06:39;;;;;;;13.95;6.75;;;9.10;65.80;;;;;;5135335;28;20012;-70
2022/03/28 04:09:05;;;;;;;10.82;5.88;;;9.00;65.60;;;;;;5135349;28;20031;-70
2022/03/28 04:11:31;;;;;;;14.75;5.93;;;8.90;66.20;;;;;;5135339;28;20027;-70
2022/03/28 04:13:57;;;;;;;13.48;5.78;;;8.90;66.40;;;;;;5135295;28;20031;-70
2022/03/28 04:16:23;;;;;;;15.27;5.65;;;9.10;66.30;;;;;;5135171;28;20023;-69
2022/03/28 04:18:49;;;;;;;11.48;5.32;;;9.20;65.90;;;;;;5134556;28;20039;-70
2022/03/28 04:21:15;;;;;;;14.88;5.80;;;9.20;65.50;;;;;;5134975;28;20027;-69
2022/03/28 04:23:41;;;;;;;11.57;5.60;;;9.20;65.30;;;;;;5134839;28;20097;-70
2022/03/28 04:26:06;;;;;;;13.82;6.32;;;9.10;66.20;;;;;;5134986;28;20043;-69
2022/03/28 04:28:32;;;;;;;19.30;6.88;;;9.00;65.30;;;;;;5134868;28;20100;-69
2022/03/28 04:30:58;;;;;;;11.98;6.20;;;9.00;65.40;;;;;;5134860;28;20437;-70
2022/03/28 04:33:24;;;;;;;15.63;5.78;;;9.00;65.80;;;;;;5134872;27;20047;-69
2022/03/28 04:35:50;;;;;;;17.40;6.30;;;8.90;65.90;;;;;;5134790;28;20032;-69
2022/03/28 04:38:16;;;;;;;16.67;6.97;;;8.90;66.00;;;;;;5134699;28;20503;-69
2022/03/28 04:40:42;;;;;;;17.58;6.22;;;8.90;65.80;;;;;;5134708;28;20012;-69
2022/03/28 04:43:08;;;;;;;14.75;5.70;;;8.90;65.60;;;;;;5134705;28;20020;-69
2022/03/28 04:45:35;;;;;;;15.00;6.40;;;9.00;65.40;;;;;;5134749;28;20048;-69
2022/03/28 04:48:01;;;;;;;13.90;5.95;;;9.00;65.50;;;;;;5134584;28;20058;-68
2022/03/28 04:50:28;;;;;;;15.38;5.95;;;9.00;66.50;;;;;;5134538;28;20027;-69
2022/03/28 04:52:53;;;;;;;15.82;5.78;;;8.90;65.50;;;;;;5134518;28;20019;-69
2022/03/28 04:55:19;;;;;;;15.80;5.85;;;8.90;65.60;;;;;;5134416;28;20042;-69
2022/03/28 04:57:45;;;;;;;15.93;5.97;;;8.90;65.60;;;;;;5134296;28;20064;-69
2022/03/28 05:00:12;;;;;;;17.23;6.50;;;8.90;65.50;;;;;;5134398;28;20083;-69
2022/03/28 05:02:37;;;;;;;16.17;5.63;;;8.90;65.80;;;;;;5134319;28;20031;-69
2022/03/28 05:05:04;;;;;;;20.40;6.70;;;8.80;65.80;;;;;;5134282;28;20019;-69
2022/03/28 05:07:30;;;;;;;17.38;6.47;;;8.80;65.70;;;;;;5133119;28;20022;-69
2022/03/28 05:09:57;;;;;;;16.80;5.78;;;8.80;66.10;;;;;;5134193;28;20043;-69
2022/03/28 05:12:26;;;;;;;17.95;5.68;;;8.70;66.30;;;;;;5133189;28;20027;-69
2022/03/28 05:14:52;;;;;;;15.82;5.57;;;8.60;66.40;;;;;;5134147;28;20038;-69
2022/03/28 05:17:22;;;;;;;14.60;5.40;;;8.60;65.50;;;;;;5134009;28;20057;-69
2022/03/28 05:19:49;;;;;;;15.55;5.60;;;8.50;66.40;;;;;;5134042;28;20051;-69
2022/03/28 05:22:15;;;;;;;14.07;5.53;;;8.50;66.70;;;;;;5134124;28;20023;-69
2022/03/28 05:24:41;;;;;;;15.90;5.75;;;8.30;66.70;;;;;;5133795;28;20050;-69
2022/03/28 05:27:07;;;;;;;16.27;5.90;;;8.30;67.00;;;;;;5132782;28;20027;-69
2022/03/28 05:29:33;;;;;;;18.85;6.60;;;8.30;67.30;;;;;;5133563;28;20051;-69
2022/03/28 05:31:58;;;;;;;21.27;6.38;;;8.30;67.40;;;;;;5133415;28;20016;-69
2022/03/28 05:34:24;;;;;;;19.42;5.95;;;8.40;67.10;;;;;;5133836;28;20032;-69
2022/03/28 05:36:50;;;;;;;20.00;6.10;;;8.50;66.80;;;;;;5133877;28;20027;-70
2022/03/28 05:39:15;;;;;;;15.95;5.63;;;8.50;66.50;;;;;;5133752;28;20047;-69
2022/03/28 05:41:41;;;;;;;10.63;4.72;;;8.40;66.50;;;;;;5133804;28;20020;-69
2022/03/28 05:44:07;;;;;;;15.40;5.85;;;8.30;67.00;;;;;;5133789;28;20034;-71
2022/03/28 05:46:33;;;;;;;14.80;5.70;;;8.20;67.60;;;;;;5132664;28;20027;-70
2022/03/28 05:48:59;;;;;;;15.77;6.10;;;8.20;67.50;;;;;;5133693;28;20079;-70
2022/03/28 05:51:25;;;;;;;14.48;5.78;;;8.20;67.60;;;;;;5133721;28;20035;-70
2022/03/28 05:53:51;;;;;;;17.63;5.97;;;8.10;68.30;;;;;;5133634;28;20028;-70
2022/03/28 05:56:17;;;;;;;16.48;5.45;;;8.20;68.10;;;;;;5133687;28;20016;-70
2022/03/28 05:58:42;;;;;;;14.48;5.15;;;8.30;67.80;;;;;;5133564;28;20058;-70
2022/03/28 06:01:08;;;;;;;17.00;5.43;;;8.30;67.40;;;;;;5133616;28;20024;-70
2022/03/28 06:03:34;;;;;;;13.95;6.07;;;8.30;67.00;;;;;;5133567;28;20039;-71
2022/03/28 06:06:03;;;;;;;15.48;5.72;;;8.40;66.90;;;;;;5133665;28;20035;-71
2022/03/28 06:08:28;;;;;;;19.65;5.57;;;8.40;67.50;;;;;;5133568;28;20020;-71
2022/03/28 06:10:55;;;;;;;17.15;6.32;;;8.40;66.80;;;;;;5133515;28;20039;-71
2022/03/28 06:13:21;;;;;;;15.57;6.72;;;8.40;67.00;;;;;;5133422;28;20027;-71
2022/03/28 06:15:48;;;;;;;15.63;5.68;;;8.40;67.70;;;;;;5133521;28;20023;-71
2022/03/28 06:18:13;;;;;;;16.88;5.68;;;8.40;67.90;;;;;;5133495;28;20026;-71
2022/03/28 06:20:39;;;;;;;16.90;4.90;;;8.40;67.90;;;;;;5133550;28;20043;-71
2022/03/28 06:23:05;;;;;;;21.52;6.28;;;8.30;67.80;;;;;;5133150;28;20066;-71
2022/03/28 06:25:30;;;;;;;18.85;5.80;;;8.40;68.80;;;;;;5133442;28;20032;-71
2022/03/28 06:27:56;;;;;;;14.68;5.97;;;8.50;67.80;;;;;;5133286;28;20039;-71
2022/03/28 06:30:22;;;;;;;19.77;6.85;;;8.50;67.90;;;;;;5133352;28;20449;-70
2022/03/28 06:32:47;;;;;;;19.45;6.45;;;8.60;68.20;;;;;;5132478;28;20028;-70
2022/03/28 06:35:14;;;;;;;19.80;7.10;;;8.50;68.80;;;;;;5133290;28;20035;-70
2022/03/28 06:37:40;;;;;;;15.93;6.78;;;8.50;68.80;;;;;;5133203;28;20063;-71
2022/03/28 06:40:06;;;;;;;26.08;7.28;;;8.50;69.20;;;;;;5133261;28;20024;-71
2022/03/28 06:42:32;;;;;;;21.55;6.85;;;8.60;69.40;;;;;;5135539;28;20079;-70
2022/03/28 06:44:58;;;;;;;16.70;6.80;;;8.60;70.00;;;;;;5137010;28;20016;-70
2022/03/28 06:47:24;;;;;;;23.08;7.18;;;8.70;70.70;;;;;;5136949;28;20040;-71
2022/03/28 06:49:50;;;;;;;18.80;8.43;;;8.80;70.60;;;;;;5136884;28;20043;-70
2022/03/28 06:52:15;;;;;;;17.63;7.82;;;8.80;70.50;;;;;;5136805;28;20031;-70
2022/03/28 06:54:41;;;;;;;24.02;8.15;;;9.00;71.00;;;;;;5136758;28;20091;-70
2022/03/28 06:57:06;;;;;;;22.75;7.45;;;8.90;71.90;;;;;;5136760;28;20027;-71
2022/03/28 06:59:32;;;;;;;16.90;7.53;;;9.00;72.00;;;;;;5136693;28;20035;-70
2022/03/28 07:01:58;;;;;;;23.67;7.95;;;9.00;72.50;;;;;;5136652;28;20036;-70
2022/03/28 07:04:24;;;;;;;24.35;7.60;;;9.00;72.10;;;;;;5136607;28;20032;-70
2022/03/28 07:06:50;;;;;;;21.00;8.35;;;9.10;72.10;;;;;;5136683;28;20024;-70
2022/03/28 07:09:16;;;;;;;17.20;7.50;;;9.20;71.90;;;;;;5136391;28;20046;-71
2022/03/28 07:11:41;;;;;;;19.45;7.47;;;9.30;71.80;;;;;;5136451;28;20046;-69
2022/03/28 07:14:07;;;;;;;20.50;7.70;;;9.30;72.00;;;;;;5136392;28;20039;-70
2022/03/28 07:16:33;;;;;;;19.00;7.93;;;9.30;72.00;;;;;;5136399;28;20024;-69
2022/03/28 07:18:59;;;;;;;22.35;8.43;;;9.30;72.60;;;;;;5136262;28;20049;-69
2022/03/28 07:21:25;;;;;;;25.23;8.13;;;9.30;72.70;;;;;;5135303;28;20439;-69
2022/03/28 07:23:52;;;;;;;21.17;8.77;;;9.50;72.50;;;;;;5135963;28;20036;-70
2022/03/28 07:26:18;;;;;;;23.83;8.27;;;9.50;72.60;;;;;;5136066;28;20080;-69
2022/03/28 07:28:44;;;;;;;20.48;8.60;;;9.60;72.40;;;;;;5135143;28;20036;-70
2022/03/28 07:31:10;;;;;;;20.17;7.65;;;9.60;72.50;;;;;;5136060;28;20110;-70
2022/03/28 07:33:39;;;;;;;23.10;8.15;;;9.70;72.50;;;;;;5136043;28;20095;-69
2022/03/28 07:36:06;;;;;;;24.00;8.63;;;9.80;72.40;;;;;;5136001;28;20047;-69
2022/03/28 07:38:32;;;;;;;18.17;7.88;;;9.80;72.50;;;;;;5135917;28;20060;-70
2022/03/28 07:40:58;;;;;;;24.05;8.95;;;9.90;72.30;;;;;;5135962;28;20028;-70
2022/03/28 07:43:23;;;;;;;21.73;9.05;;;10.00;72.00;;;;;;5135878;28;20019;-69
2022/03/28 07:45:50;;;;;;;20.05;8.82;;;10.10;71.80;;;;;;5135816;28;20024;-70
2022/03/28 07:48:16;;;;;;;24.02;8.80;;;10.20;71.70;;;;;;5135820;28;20055;-70
2022/03/28 07:50:43;;;;;;;27.23;9.13;;;10.30;71.40;;;;;;5135841;28;20020;-70
2022/03/28 07:53:09;;;;;;;26.15;10.13;;;10.40;71.70;;;;;;5134870;28;20044;-70
2022/03/28 07:55:35;;;;;;;21.73;9.15;;;10.40;71.50;;;;;;5135609;28;20500;-70
2022/03/28 07:58:03;;;;;;;23.75;9.65;;;10.50;72.00;;;;;;5135552;28;20057;-70
2022/03/28 08:00:29;;;;;;;22.30;9.30;;;10.50;72.10;;;;;;5135504;28;20024;-70
2022/03/28 08:02:56;;;;;;;23.92;9.35;;;10.50;71.80;;;;;;5135519;28;20051;-70
2022/03/28 08:05:22;;;;;;;23.38;9.93;;;10.60;72.60;;;;;;5135496;28;20478;-70
2022/03/28 08:07:52;;;;;;;24.13;9.73;;;10.60;72.80;;;;;;5135443;28;20032;-70
2022/03/28 08:10:18;;;;;;;23.10;9.60;;;10.60;72.30;;;;;;5135323;28;20020;-70
2022/03/28 08:12:44;;;;;;;23.15;8.95;;;10.80;71.80;;;;;;5135299;27;20076;-70
2022/03/28 08:15:11;;;;;;;23.42;9.05;;;10.90;71.40;;;;;;5135221;28;20027;-70
2022/03/28 08:17:38;;;;;;;22.67;9.73;;;11.00;72.40;;;;;;5135223;28;20027;-70
2022/03/28 08:20:09;;;;;;;23.95;9.68;;;11.00;71.00;;;;;;5135129;28;20051;-70
2022/03/28 08:22:36;;;;;;;29.80;11.18;;;11.10;70.90;;;;;;5135071;28;20019;-70
2022/03/28 08:25:03;;;;;;;25.75;9.85;;;11.20;70.70;;;;;;5134763;28;20036;-70
2022/03/28 08:27:29;;;;;;;27.50;10.25;;;11.40;70.50;;;;;;5134905;28;20045;-70
2022/03/28 08:29:54;;;;;;;24.60;9.95;;;11.50;69.90;;;;;;5134899;28;20058;-70
2022/03/28 08:32:20;;;;;;;25.58;9.45;;;11.50;69.70;;;;;;5134847;28;20115;-70
2022/03/28 08:34:48;;;;;;;24.15;11.02;;;11.70;69.70;;;;;;5134842;28;20047;-70
2022/03/28 08:37:16;;;;;;;26.80;11.13;;;11.80;69.40;;;;;;5134690;27;20031;-70
2022/03/28 08:39:43;;;;;;;24.92;10.68;;;12.00;69.30;;;;;;5134816;28;20024;-70
2022/03/28 08:42:14;;;;;;;23.63;11.27;;;12.10;69.20;;;;;;5134648;28;20030;-71
2022/03/28 08:44:40;;;;;;;25.98;11.23;;;12.20;68.80;;;;;;5133607;28;20422;-71
2022/03/28 08:47:08;;;;;;;24.73;11.30;;;12.40;68.50;;;;;;5134631;28;20051;-70
2022/03/28 08:49:38;;;;;;;27.45;10.43;;;12.50;68.20;;;;;;5134602;28;20075;-70
2022/03/28 08:52:05;;;;;;;27.80;11.52;;;12.70;67.30;;;;;;5134584;28;20046;-70
2022/03/28 08:54:32;;;;;;;31.00;11.07;;;12.70;66.90;;;;;;5134612;28;20019;-70
2022/03/28 08:56:58;;;;;;;28.65;10.95;;;12.90;66.90;;;;;;5134424;28;20461;-70
2022/03/28 08:59:23;;;;;;;26.15;10.57;;;13.00;66.50;;;;;;5134350;28;20057;-70
2022/03/28 09:01:50;;;;;;;22.15;10.52;;;13.10;66.40;;;;;;5134374;28;20065;-71
2022/03/28 09:04:16;;;;;;;26.80;11.77;;;13.20;66.30;;;;;;5134333;28;20034;-71
2022/03/28 09:06:43;;;;;;;31.08;12.60;;;13.30;65.90;;;;;;5134242;28;20039;-69
2022/03/28 09:09:27;;;;;;;31.70;11.52;;;13.30;65.80;;;;;;5134268;28;20027;-69
2022/03/28 09:11:58;;;;;;;28.30;11.00;;;13.30;65.70;;;;;;5134393;28;20028;-70
2022/03/28 09:14:30;;;;;;;30.77;12.27;;;13.50;66.10;;;;;;5134161;28;20038;-70
2022/03/28 09:17:05;;;;;;;27.40;12.38;;;13.70;65.90;;;;;;5134131;28;20032;-70
2022/03/28 09:19:44;;;;;;;28.48;12.15;;;13.80;65.50;;;;;;5134102;28;20082;-70
2022/03/28 09:22:20;;;;;;;33.45;12.98;;;13.90;64.80;;;;;;5134094;28;20050;-70
2022/03/28 09:24:47;;;;;;;32.40;12.30;;;14.00;64.40;;;;;;5132830;28;20063;-71
2022/03/28 09:27:16;;;;;;;27.98;12.10;;;14.10;64.30;;;;;;5134003;28;20016;-71
2022/03/28 09:29:58;;;;;;;26.65;12.85;;;14.20;63.70;;;;;;5133841;28;20016;-71
2022/03/28 09:32:30;;;;;;;29.33;11.52;;;14.30;63.10;;;;;;5134082;28;20037;-71
2022/03/28 09:35:19;;;;;;;28.45;13.05;;;14.30;63.50;;;;;;5133881;28;20044;-71
2022/03/28 09:38:05;;;;;;;27.38;12.23;;;14.40;62.80;;;;;;5133804;28;20099;-71
2022/03/28 09:40:38;;;;;;;25.42;12.05;;;14.50;62.70;;;;;;5132721;28;20020;-71
2022/03/28 09:43:25;;;;;;;27.73;12.23;;;14.50;62.10;;;;;;5133809;28;20088;-71
2022/03/28 09:45:54;;;;;;;30.77;13.00;;;14.60;62.50;;;;;;5122858;28;20042;-71
2022/03/28 09:48:22;;;;;;;29.90;12.60;;;14.80;62.40;;;;;;5133750;28;20085;-71
2022/03/28 09:51:05;;;;;;;31.55;12.77;;;14.90;62.50;;;;;;5133733;28;20023;-71
2022/03/28 09:53:32;;;;;;;;;;;15.00;62.40;;;;;;5134260;28;20047;-71
2022/03/28 09:55:57;;;;;;;32.90;12.15;;;15.10;61.90;;;;;;5133665;28;19910;-71
2022/03/28 09:58:38;;;;;;;33.88;13.02;;;15.10;61.30;;;;;;5133538;28;20034;-71
2022/03/28 10:01:24;;;;;;;29.30;13.95;;;15.30;61.10;;;;;;5133607;28;20027;-71
2022/03/28 10:03:52;;;;;;;30.58;13.25;;;15.40;60.80;;;;;;5133643;28;20012;-71
2022/03/28 10:06:19;;;;;;;29.95;13.75;;;15.60;60.30;;;;;;5132505;28;20020;-71
2022/03/28 10:08:45;;;;;;;29.40;13.45;;;15.60;59.70;;;;;;5133576;28;20030;-71
2022/03/28 10:11:11;;;;;;;38.25;14.52;;;15.70;59.70;;;;;;5133523;28;20016;-71
2022/03/28 10:13:38;;;;;;;35.33;13.98;;;15.80;59.70;;;;;;5133480;28;20028;-71
2022/03/28 10:16:05;;;;;;;30.75;14.43;;;15.90;58.80;;;;;;5115704;28;20120;-70
2022/03/28 10:18:33;;;;;;;26.45;12.75;;;15.90;58.30;;;;;;5137446;28;20476;-71
2022/03/28 10:21:08;;;;;;;34.53;14.45;;;16.00;57.70;;;;;;5137527;28;20043;-71
2022/03/28 10:23:42;;;;;;;28.35;13.07;;;16.00;57.80;;;;;;5137504;28;20023;-71
2022/03/28 10:26:09;;;;;;;32.00;13.55;;;16.00;58.00;;;;;;5137254;28;20044;-71
2022/03/28 10:28:35;;;;;;;34.92;14.57;;;16.10;58.90;;;;;;5137293;27;20016;-71
2022/03/28 10:31:15;;;;;;;29.00;13.27;;;16.20;57.70;;;;;;5137439;28;20069;-71
2022/03/28 10:34:07;;;;;;;26.73;12.85;;;16.30;56.90;;;;;;5137301;28;20504;-71
2022/03/28 10:36:35;;;;;;;31.20;13.90;;;16.40;57.00;;;;;;5134408;27;20400;-71
2022/03/28 10:39:39;;;;;;;29.83;13.57;;;16.40;56.20;;;;;;5137089;28;20036;-71
2022/03/28 10:42:17;;;;;;;29.35;13.73;;;16.40;57.00;;;;;;5074373;28;20112;-71
2022/03/28 10:44:58;;;;;;;27.33;13.50;;;16.50;57.00;;;;;;5074470;28;20028;-70
2022/03/28 10:47:49;;;;;;;40.55;14.90;;;16.60;57.10;;;;;;5107932;28;20047;-71
2022/03/28 10:50:25;;;;;;;30.33;13.63;;;16.80;56.70;;;;;;5137043;28;20028;-70
2022/03/28 10:53:17;;;;;;;28.83;13.75;;;17.00;56.20;;;;;;5137004;28;20100;-70
2022/03/28 10:55:45;;;;;;;28.02;13.55;;;17.00;55.20;;;;;;5136958;28;20031;-71
2022/03/28 10:58:16;;;;;;;32.55;14.05;;;17.00;54.80;;;;;;5136736;28;20043;-70
2022/03/28 11:01:13;;;;;;;29.23;14.00;;;17.10;54.80;;;;;;5136815;28;20049;-71
2022/03/28 11:03:46;;;;;;;26.95;12.98;;;17.20;54.60;;;;;;5136662;28;20024;-70
2022/03/28 11:06:13;;;;;;;30.73;14.10;;;17.20;54.40;;;;;;5136592;28;20028;-70
2022/03/28 11:08:41;;;;;;;27.15;12.93;;;17.20;53.80;;;;;;5136591;28;20125;-70
2022/03/28 11:11:33;;;;;;;26.65;13.40;;;17.20;52.10;;;;;;5136522;28;20019;-71
2022/03/28 11:14:12;;;;;;;29.35;14.40;;;17.30;52.20;;;;;;5133722;28;20058;-70
2022/03/28 11:16:54;;;;;;;28.00;13.15;;;17.40;52.00;;;;;;5136396;27;20028;-70
2022/03/28 11:19:32;;;;;;;28.33;14.65;;;17.50;52.10;;;;;;5136270;28;20024;-71
2022/03/28 11:22:02;;;;;;;28.45;13.32;;;17.50;52.00;;;;;;5136309;28;20472;-70
2022/03/28 11:24:54;;;;;;;26.55;13.38;;;17.60;51.20;;;;;;5136288;28;20020;-71
2022/03/28 11:27:28;;;;;;;24.90;13.17;;;17.70;51.40;;;;;;5136022;28;20020;-70
2022/03/28 11:30:05;;;;;;;24.65;12.82;;;17.70;51.50;;;;;;5135448;28;20245;-70
2022/03/28 11:32:33;;;;;;;27.58;13.38;;;17.70;51.20;;;;;;5136190;28;20050;-70
2022/03/28 11:34:59;;;;;;;33.03;14.23;;;17.70;52.00;;;;;;5136083;28;20055;-70
2022/03/28 11:37:27;;;;;;;32.70;14.13;;;17.80;51.80;;;;;;5135950;28;20053;-70
2022/03/28 11:40:17;;;;;;;26.10;14.35;;;17.90;51.80;;;;;;5135990;28;20075;-71
2022/03/28 11:42:49;;;;;;;24.75;12.57;;;18.00;50.50;;;;;;5135990;28;20031;-71
2022/03/28 11:45:15;;;;;;;30.67;13.85;;;18.10;50.90;;;;;;5136070;28;20042;-71
2022/03/28 11:47:50;;;;;;;26.63;13.88;;;18.10;50.50;;;;;;5135800;28;20020;-70
2022/03/28 11:50:16;;;;;;;28.67;15.05;;;18.10;50.20;;;;;;5135913;28;20042;-70
2022/03/28 11:52:49;;;;;;;26.38;13.95;;;18.20;50.50;;;;;;5135850;28;20027;-70
2022/03/28 11:55:21;;;;;;;24.83;13.35;;;18.20;50.50;;;;;;5135768;28;20036;-71
2022/03/28 12:00:36;;;;;;;27.92;14.88;;;18.50;49.70;;;;;;5135691;28;20159;-70
2022/03/28 12:03:05;;;;;;;29.77;14.57;;;18.60;49.20;;;;;;5135581;27;20062;-70
2022/03/28 12:05:37;;;;;;;27.90;14.90;;;18.50;48.80;;;;;;5135474;28;20030;-70
2022/03/28 12:08:21;;;;;;;28.88;14.48;;;18.60;50.00;;;;;;5135483;28;20047;-71
2022/03/28 12:10:52;;;;;;;28.42;14.07;;;18.60;49.30;;;;;;5135420;28;20112;-70
2022/03/28 12:13:25;;;;;;;26.80;13.93;;;18.70;48.70;;;;;;5135347;27;20107;-70
2022/03/28 12:15:53;;;;;;;27.60;14.60;;;18.80;48.40;;;;;;5135243;28;20035;-70
2022/03/28 12:18:22;;;;;;;27.35;14.13;;;18.90;48.30;;;;;;5135182;28;20116;-70
2022/03/28 12:20:53;;;;;;;26.67;14.00;;;18.90;48.50;;;;;;5135148;28;20020;-70
2022/03/28 12:23:20;;;;;;;24.75;13.02;;;19.00;48.60;;;;;;5135279;28;20019;-70
2022/03/28 12:25:50;;;;;;;27.02;13.95;;;19.10;48.40;;;;;;5133886;28;20035;-71
2022/03/28 12:28:33;;;;;;;30.67;15.63;;;19.10;47.70;;;;;;5134930;28;20063;-71
2022/03/28 12:31:00;;;;;;;26.33;14.02;;;19.20;47.80;;;;;;5133973;28;20031;-70
2022/03/28 12:33:43;;;;;;;28.10;13.40;;;19.10;47.80;;;;;;5134925;28;20387;-70
2022/03/28 12:36:21;;;;;;;25.33;13.93;;;19.20;47.00;;;;;;5134883;28;20023;-71
2022/03/28 12:38:59;;;;;;;28.38;13.80;;;19.20;47.70;;;;;;5134809;28;20035;-70
2022/03/28 12:41:28;;;;;;;23.77;13.45;;;19.30;46.90;;;;;;5133786;28;20024;-70
2022/03/28 12:43:54;;;;;;;27.05;13.80;;;19.30;46.70;;;;;;5134737;28;20040;-70
2022/03/28 12:46:22;;;;;;;27.08;13.27;;;19.20;48.20;;;;;;5134852;28;20035;-70